sensor_id;sensor_type;location;lat;lon;timestamp;P1;durP1;ratioP1;P2;durP2;ratioP2
18933;SDS011;9599;53.706;10.384;2023-04-25T00:01:02;7.83;;;4.43;;
18933;SDS011;9599;53.706;10.384;2023-04-25T00:03:31;6.87;;;4.53;;
18933;SDS011;9599;53.706;10.384;2023-04-25T00:05:59;7.37;;;4.60;;
18933;SDS011;9599;53.706;10.384;2023-04-25T00:08:28;8.43;;;4.73;;
18933;SDS011;9599;53.706;10.384;2023-04-25T00:10:56;9.93;;;5.50;;
18933;SDS011;9599;53.706;10.384;2023-04-25T00:13:24;9.67;;;5.00;;
18933;SDS011;9599;53.706;10.384;2023-04-25T00:15:54;11.43;;;5.30;;
18933;SDS011;9599;53.706;10.384;2023-04-25T00:18:22;9.13;;;5.47;;
18933;SDS011;9599;53.706;10.384;2023-04-25T00:20:50;8.53;;;5.57;;
18933;SDS011;9599;53.706;10.384;2023-04-25T00:23:18;10.30;;;5.40;;
18933;SDS011;9599;53.706;10.384;2023-04-25T00:25:46;13.07;;;6.23;;
18933;SDS011;9599;53.706;10.384;2023-04-25T00:28:15;14.23;;;5.20;;
18933;SDS011;9599;53.706;10.384;2023-04-25T00:30:44;10.40;;;4.50;;
18933;SDS011;9599;53.706;10.384;2023-04-25T00:33:13;10.83;;;4.70;;
18933;SDS011;9599;53.706;10.384;2023-04-25T00:35:41;12.03;;;4.30;;
18933;SDS011;9599;53.706;10.384;2023-04-25T00:38:09;13.20;;;4.57;;
18933;SDS011;9599;53.706;10.384;2023-04-25T00:40:37;19.07;;;4.57;;
18933;SDS011;9599;53.706;10.384;2023-04-25T00:43:05;15.57;;;4.90;;
18933;SDS011;9599;53.706;10.384;2023-04-25T00:45:33;11.67;;;4.07;;
18933;SDS011;9599;53.706;10.384;2023-04-25T00:48:06;18.30;;;4.83;;
18933;SDS011;9599;53.706;10.384;2023-04-25T00:50:35;16.57;;;4.20;;
18933;SDS011;9599;53.706;10.384;2023-04-25T00:53:04;14.30;;;4.03;;
18933;SDS011;9599;53.706;10.384;2023-04-25T00:55:32;13.70;;;4.40;;
18933;SDS011;9599;53.706;10.384;2023-04-25T00:58:02;14.23;;;3.93;;
18933;SDS011;9599;53.706;10.384;2023-04-25T01:00:30;9.80;;;4.37;;
18933;SDS011;9599;53.706;10.384;2023-04-25T01:02:58;17.57;;;4.20;;
18933;SDS011;9599;53.706;10.384;2023-04-25T01:05:29;13.27;;;3.97;;
18933;SDS011;9599;53.706;10.384;2023-04-25T01:07:58;10.70;;;3.80;;
18933;SDS011;9599;53.706;10.384;2023-04-25T01:10:26;14.80;;;4.33;;
18933;SDS011;9599;53.706;10.384;2023-04-25T01:12:54;15.40;;;3.80;;
18933;SDS011;9599;53.706;10.384;2023-04-25T01:15:23;10.17;;;3.80;;
18933;SDS011;9599;53.706;10.384;2023-04-25T01:17:51;16.40;;;3.50;;
18933;SDS011;9599;53.706;10.384;2023-04-25T01:20:23;13.23;;;3.97;;
18933;SDS011;9599;53.706;10.384;2023-04-25T01:22:54;13.63;;;3.83;;
18933;SDS011;9599;53.706;10.384;2023-04-25T01:25:23;12.60;;;3.63;;
18933;SDS011;9599;53.706;10.384;2023-04-25T01:27:51;15.63;;;3.63;;
18933;SDS011;9599;53.706;10.384;2023-04-25T01:30:19;14.10;;;3.83;;
18933;SDS011;9599;53.706;10.384;2023-04-25T01:32:48;15.27;;;3.90;;
18933;SDS011;9599;53.706;10.384;2023-04-25T01:35:16;16.43;;;4.20;;
18933;SDS011;9599;53.706;10.384;2023-04-25T01:37:44;17.90;;;3.83;;
18933;SDS011;9599;53.706;10.384;2023-04-25T01:40:14;18.87;;;3.77;;
18933;SDS011;9599;53.706;10.384;2023-04-25T01:42:43;15.03;;;4.10;;
18933;SDS011;9599;53.706;10.384;2023-04-25T01:45:11;16.07;;;3.93;;
18933;SDS011;9599;53.706;10.384;2023-04-25T01:47:39;13.30;;;4.13;;
18933;SDS011;9599;53.706;10.384;2023-04-25T01:50:10;11.93;;;3.97;;
18933;SDS011;9599;53.706;10.384;2023-04-25T01:52:38;14.13;;;4.07;;
18933;SDS011;9599;53.706;10.384;2023-04-25T01:55:07;16.53;;;4.00;;
18933;SDS011;9599;53.706;10.384;2023-04-25T01:57:41;22.10;;;4.40;;
18933;SDS011;9599;53.706;10.384;2023-04-25T02:00:12;22.07;;;4.43;;
18933;SDS011;9599;53.706;10.384;2023-04-25T02:02:40;16.17;;;4.43;;
18933;SDS011;9599;53.706;10.384;2023-04-25T02:05:21;9.00;;;3.57;;
18933;SDS011;9599;53.706;10.384;2023-04-25T02:07:49;13.47;;;4.00;;
18933;SDS011;9599;53.706;10.384;2023-04-25T02:10:17;13.47;;;4.07;;
18933;SDS011;9599;53.706;10.384;2023-04-25T02:12:56;16.00;;;3.80;;
18933;SDS011;9599;53.706;10.384;2023-04-25T02:15:46;14.20;;;4.23;;
18933;SDS011;9599;53.706;10.384;2023-04-25T02:18:15;18.80;;;4.50;;
18933;SDS011;9599;53.706;10.384;2023-04-25T02:20:43;18.93;;;3.90;;
18933;SDS011;9599;53.706;10.384;2023-04-25T02:23:12;11.20;;;3.50;;
18933;SDS011;9599;53.706;10.384;2023-04-25T02:25:41;16.17;;;3.90;;
18933;SDS011;9599;53.706;10.384;2023-04-25T02:28:10;17.87;;;4.50;;
18933;SDS011;9599;53.706;10.384;2023-04-25T02:30:38;19.27;;;4.27;;
18933;SDS011;9599;53.706;10.384;2023-04-25T02:33:06;14.87;;;4.10;;
18933;SDS011;9599;53.706;10.384;2023-04-25T02:35:35;16.63;;;3.80;;
18933;SDS011;9599;53.706;10.384;2023-04-25T02:38:02;16.17;;;3.87;;
18933;SDS011;9599;53.706;10.384;2023-04-25T02:40:32;12.87;;;3.73;;
18933;SDS011;9599;53.706;10.384;2023-04-25T02:42:59;13.37;;;3.53;;
18933;SDS011;9599;53.706;10.384;2023-04-25T02:45:29;15.53;;;4.13;;
18933;SDS011;9599;53.706;10.384;2023-04-25T02:47:57;13.13;;;3.33;;
18933;SDS011;9599;53.706;10.384;2023-04-25T02:50:25;16.33;;;3.80;;
18933;SDS011;9599;53.706;10.384;2023-04-25T02:52:53;16.30;;;3.90;;
18933;SDS011;9599;53.706;10.384;2023-04-25T02:55:26;17.63;;;4.30;;
18933;SDS011;9599;53.706;10.384;2023-04-25T02:57:55;17.87;;;3.70;;
18933;SDS011;9599;53.706;10.384;2023-04-25T03:00:46;11.53;;;3.67;;
18933;SDS011;9599;53.706;10.384;2023-04-25T03:03:15;13.97;;;3.73;;
18933;SDS011;9599;53.706;10.384;2023-04-25T03:05:45;18.53;;;4.60;;
18933;SDS011;9599;53.706;10.384;2023-04-25T03:08:13;10.23;;;3.90;;
18933;SDS011;9599;53.706;10.384;2023-04-25T03:10:42;12.90;;;4.07;;
18933;SDS011;9599;53.706;10.384;2023-04-25T03:13:10;14.97;;;3.90;;
18933;SDS011;9599;53.706;10.384;2023-04-25T03:15:41;10.90;;;4.30;;
18933;SDS011;9599;53.706;10.384;2023-04-25T03:18:10;14.70;;;3.30;;
18933;SDS011;9599;53.706;10.384;2023-04-25T03:20:38;19.77;;;3.77;;
18933;SDS011;9599;53.706;10.384;2023-04-25T03:23:08;13.07;;;4.10;;
18933;SDS011;9599;53.706;10.384;2023-04-25T03:25:38;13.07;;;3.53;;
18933;SDS011;9599;53.706;10.384;2023-04-25T03:28:06;14.00;;;4.17;;
18933;SDS011;9599;53.706;10.384;2023-04-25T03:30:34;14.07;;;3.70;;
18933;SDS011;9599;53.706;10.384;2023-04-25T03:33:02;18.33;;;4.00;;
18933;SDS011;9599;53.706;10.384;2023-04-25T03:35:32;10.97;;;3.80;;
18933;SDS011;9599;53.706;10.384;2023-04-25T03:38:00;16.57;;;3.80;;
18933;SDS011;9599;53.706;10.384;2023-04-25T03:40:33;19.07;;;3.77;;
18933;SDS011;9599;53.706;10.384;2023-04-25T03:43:07;11.10;;;4.00;;
18933;SDS011;9599;53.706;10.384;2023-04-25T03:45:37;12.30;;;3.37;;
18933;SDS011;9599;53.706;10.384;2023-04-25T03:48:05;17.03;;;3.47;;
18933;SDS011;9599;53.706;10.384;2023-04-25T03:50:35;12.70;;;3.30;;
18933;SDS011;9599;53.706;10.384;2023-04-25T03:53:04;14.57;;;3.50;;
18933;SDS011;9599;53.706;10.384;2023-04-25T03:55:52;11.00;;;3.27;;
18933;SDS011;9599;53.706;10.384;2023-04-25T03:58:20;19.40;;;3.60;;
18933;SDS011;9599;53.706;10.384;2023-04-25T04:00:49;18.70;;;3.60;;
18933;SDS011;9599;53.706;10.384;2023-04-25T04:03:17;11.87;;;3.83;;
18933;SDS011;9599;53.706;10.384;2023-04-25T04:05:47;17.23;;;3.60;;
18933;SDS011;9599;53.706;10.384;2023-04-25T04:08:16;15.83;;;4.07;;
18933;SDS011;9599;53.706;10.384;2023-04-25T04:10:44;15.80;;;3.63;;
18933;SDS011;9599;53.706;10.384;2023-04-25T04:13:12;16.20;;;4.00;;
18933;SDS011;9599;53.706;10.384;2023-04-25T04:15:40;17.47;;;3.57;;
18933;SDS011;9599;53.706;10.384;2023-04-25T04:18:09;15.07;;;3.80;;
18933;SDS011;9599;53.706;10.384;2023-04-25T04:20:38;10.00;;;3.00;;
18933;SDS011;9599;53.706;10.384;2023-04-25T04:23:07;18.87;;;3.77;;
18933;SDS011;9599;53.706;10.384;2023-04-25T04:25:35;18.57;;;4.00;;
18933;SDS011;9599;53.706;10.384;2023-04-25T04:28:17;14.67;;;3.80;;
18933;SDS011;9599;53.706;10.384;2023-04-25T04:30:51;11.47;;;3.70;;
18933;SDS011;9599;53.706;10.384;2023-04-25T04:33:19;14.17;;;3.40;;
18933;SDS011;9599;53.706;10.384;2023-04-25T04:35:53;15.63;;;3.87;;
18933;SDS011;9599;53.706;10.384;2023-04-25T04:38:23;13.67;;;3.37;;
18933;SDS011;9599;53.706;10.384;2023-04-25T04:40:54;11.10;;;3.63;;
18933;SDS011;9599;53.706;10.384;2023-04-25T04:43:29;13.07;;;3.60;;
18933;SDS011;9599;53.706;10.384;2023-04-25T04:46:17;12.60;;;3.90;;
18933;SDS011;9599;53.706;10.384;2023-04-25T04:49:08;13.27;;;3.33;;
18933;SDS011;9599;53.706;10.384;2023-04-25T04:51:55;18.43;;;3.83;;
18933;SDS011;9599;53.706;10.384;2023-04-25T04:54:52;12.17;;;3.27;;
18933;SDS011;9599;53.706;10.384;2023-04-25T04:57:34;12.80;;;3.23;;
18933;SDS011;9599;53.706;10.384;2023-04-25T05:00:20;15.00;;;3.90;;
18933;SDS011;9599;53.706;10.384;2023-04-25T05:02:54;12.00;;;3.03;;
18933;SDS011;9599;53.706;10.384;2023-04-25T05:05:43;12.97;;;3.33;;
18933;SDS011;9599;53.706;10.384;2023-04-25T05:08:32;11.73;;;3.43;;
18933;SDS011;9599;53.706;10.384;2023-04-25T05:11:27;12.30;;;3.37;;
18933;SDS011;9599;53.706;10.384;2023-04-25T05:14:13;11.83;;;3.60;;
18933;SDS011;9599;53.706;10.384;2023-04-25T05:16:48;12.43;;;3.60;;
18933;SDS011;9599;53.706;10.384;2023-04-25T05:19:29;12.43;;;3.40;;
18933;SDS011;9599;53.706;10.384;2023-04-25T05:22:17;9.03;;;2.73;;
18933;SDS011;9599;53.706;10.384;2023-04-25T05:25:07;11.20;;;3.13;;
18933;SDS011;9599;53.706;10.384;2023-04-25T05:27:51;16.30;;;3.80;;
18933;SDS011;9599;53.706;10.384;2023-04-25T05:30:37;14.27;;;3.67;;
18933;SDS011;9599;53.706;10.384;2023-04-25T05:33:10;12.67;;;3.60;;
18933;SDS011;9599;53.706;10.384;2023-04-25T05:35:38;9.17;;;3.17;;
18933;SDS011;9599;53.706;10.384;2023-04-25T05:38:06;13.30;;;3.40;;
18933;SDS011;9599;53.706;10.384;2023-04-25T05:40:53;7.20;;;2.90;;
18933;SDS011;9599;53.706;10.384;2023-04-25T05:43:41;13.33;;;3.37;;
18933;SDS011;9599;53.706;10.384;2023-04-25T05:46:39;14.27;;;3.50;;
18933;SDS011;9599;53.706;10.384;2023-04-25T05:49:27;12.07;;;3.07;;
18933;SDS011;9599;53.706;10.384;2023-04-25T05:52:14;10.33;;;3.23;;
18933;SDS011;9599;53.706;10.384;2023-04-25T05:54:49;12.77;;;3.37;;
18933;SDS011;9599;53.706;10.384;2023-04-25T05:57:21;11.90;;;3.40;;
18933;SDS011;9599;53.706;10.384;2023-04-25T05:59:52;10.83;;;3.70;;
18933;SDS011;9599;53.706;10.384;2023-04-25T06:02:26;12.53;;;3.40;;
18933;SDS011;9599;53.706;10.384;2023-04-25T06:04:55;10.60;;;3.23;;
18933;SDS011;9599;53.706;10.384;2023-04-25T06:07:23;15.23;;;3.70;;
18933;SDS011;9599;53.706;10.384;2023-04-25T06:09:51;8.93;;;3.30;;
18933;SDS011;9599;53.706;10.384;2023-04-25T06:12:19;13.30;;;3.40;;
18933;SDS011;9599;53.706;10.384;2023-04-25T06:14:48;12.70;;;3.20;;
18933;SDS011;9599;53.706;10.384;2023-04-25T06:17:18;15.33;;;3.30;;
18933;SDS011;9599;53.706;10.384;2023-04-25T06:19:48;9.93;;;3.07;;
18933;SDS011;9599;53.706;10.384;2023-04-25T06:22:17;12.07;;;2.90;;
18933;SDS011;9599;53.706;10.384;2023-04-25T06:24:45;10.10;;;2.63;;
18933;SDS011;9599;53.706;10.384;2023-04-25T06:27:13;9.43;;;2.53;;
18933;SDS011;9599;53.706;10.384;2023-04-25T06:29:42;12.10;;;2.83;;
18933;SDS011;9599;53.706;10.384;2023-04-25T06:32:10;10.90;;;3.20;;
18933;SDS011;9599;53.706;10.384;2023-04-25T06:34:40;9.87;;;3.30;;
18933;SDS011;9599;53.706;10.384;2023-04-25T06:37:08;9.47;;;2.87;;
18933;SDS011;9599;53.706;10.384;2023-04-25T06:39:36;11.77;;;3.33;;
18933;SDS011;9599;53.706;10.384;2023-04-25T06:42:06;10.23;;;3.03;;
18933;SDS011;9599;53.706;10.384;2023-04-25T06:44:57;13.83;;;3.20;;
18933;SDS011;9599;53.706;10.384;2023-04-25T06:47:27;9.63;;;3.47;;
18933;SDS011;9599;53.706;10.384;2023-04-25T06:49:57;9.90;;;2.93;;
18933;SDS011;9599;53.706;10.384;2023-04-25T06:52:25;7.10;;;2.70;;
18933;SDS011;9599;53.706;10.384;2023-04-25T06:54:53;10.33;;;2.90;;
18933;SDS011;9599;53.706;10.384;2023-04-25T06:57:33;12.13;;;3.63;;
18933;SDS011;9599;53.706;10.384;2023-04-25T07:00:21;16.27;;;3.30;;
18933;SDS011;9599;53.706;10.384;2023-04-25T07:02:49;9.00;;;3.00;;
18933;SDS011;9599;53.706;10.384;2023-04-25T07:05:19;10.03;;;2.90;;
18933;SDS011;9599;53.706;10.384;2023-04-25T07:07:47;7.83;;;2.80;;
18933;SDS011;9599;53.706;10.384;2023-04-25T07:10:15;8.20;;;2.90;;
18933;SDS011;9599;53.706;10.384;2023-04-25T07:12:43;8.57;;;3.33;;
18933;SDS011;9599;53.706;10.384;2023-04-25T07:15:11;13.17;;;3.40;;
18933;SDS011;9599;53.706;10.384;2023-04-25T07:17:43;9.80;;;2.47;;
18933;SDS011;9599;53.706;10.384;2023-04-25T07:20:11;9.50;;;2.90;;
18933;SDS011;9599;53.706;10.384;2023-04-25T07:22:41;7.43;;;2.47;;
18933;SDS011;9599;53.706;10.384;2023-04-25T07:25:09;7.23;;;2.67;;
18933;SDS011;9599;53.706;10.384;2023-04-25T07:27:38;11.17;;;2.53;;
18933;SDS011;9599;53.706;10.384;2023-04-25T07:30:12;10.23;;;2.77;;
18933;SDS011;9599;53.706;10.384;2023-04-25T07:32:40;7.67;;;2.10;;
18933;SDS011;9599;53.706;10.384;2023-04-25T07:35:08;8.83;;;2.67;;
18933;SDS011;9599;53.706;10.384;2023-04-25T07:37:36;10.10;;;2.57;;
18933;SDS011;9599;53.706;10.384;2023-04-25T07:40:11;9.67;;;2.50;;
18933;SDS011;9599;53.706;10.384;2023-04-25T07:42:44;7.73;;;2.40;;
18933;SDS011;9599;53.706;10.384;2023-04-25T07:45:16;10.23;;;2.70;;
18933;SDS011;9599;53.706;10.384;2023-04-25T07:47:45;5.77;;;2.20;;
18933;SDS011;9599;53.706;10.384;2023-04-25T07:50:13;9.70;;;2.70;;
18933;SDS011;9599;53.706;10.384;2023-04-25T07:52:41;11.43;;;2.47;;
18933;SDS011;9599;53.706;10.384;2023-04-25T07:55:19;7.43;;;2.03;;
18933;SDS011;9599;53.706;10.384;2023-04-25T07:57:56;8.33;;;2.10;;
18933;SDS011;9599;53.706;10.384;2023-04-25T08:00:27;7.60;;;2.13;;
18933;SDS011;9599;53.706;10.384;2023-04-25T08:03:16;7.93;;;2.10;;
18933;SDS011;9599;53.706;10.384;2023-04-25T08:05:44;9.97;;;2.73;;
18933;SDS011;9599;53.706;10.384;2023-04-25T08:08:13;9.17;;;2.60;;
18933;SDS011;9599;53.706;10.384;2023-04-25T08:10:43;9.90;;;2.30;;
18933;SDS011;9599;53.706;10.384;2023-04-25T08:13:12;12.47;;;3.00;;
18933;SDS011;9599;53.706;10.384;2023-04-25T08:15:40;7.73;;;2.53;;
18933;SDS011;9599;53.706;10.384;2023-04-25T08:18:08;9.77;;;2.20;;
18933;SDS011;9599;53.706;10.384;2023-04-25T08:20:36;7.87;;;2.37;;
18933;SDS011;9599;53.706;10.384;2023-04-25T08:23:07;10.87;;;2.50;;
18933;SDS011;9599;53.706;10.384;2023-04-25T08:25:59;9.53;;;2.20;;
18933;SDS011;9599;53.706;10.384;2023-04-25T08:28:28;7.77;;;2.20;;
18933;SDS011;9599;53.706;10.384;2023-04-25T08:30:58;8.30;;;2.10;;
18933;SDS011;9599;53.706;10.384;2023-04-25T08:33:33;14.00;;;2.80;;
18933;SDS011;9599;53.706;10.384;2023-04-25T08:36:14;10.70;;;2.83;;
18933;SDS011;9599;53.706;10.384;2023-04-25T08:39:01;8.77;;;2.90;;
18933;SDS011;9599;53.706;10.384;2023-04-25T08:41:31;6.80;;;2.20;;
18933;SDS011;9599;53.706;10.384;2023-04-25T08:43:59;9.40;;;2.33;;
18933;SDS011;9599;53.706;10.384;2023-04-25T08:46:28;8.47;;;2.00;;
18933;SDS011;9599;53.706;10.384;2023-04-25T08:49:20;5.60;;;1.87;;
18933;SDS011;9599;53.706;10.384;2023-04-25T08:51:48;4.07;;;1.70;;
18933;SDS011;9599;53.706;10.384;2023-04-25T08:54:21;10.37;;;2.10;;
18933;SDS011;9599;53.706;10.384;2023-04-25T08:57:05;6.93;;;2.13;;
18933;SDS011;9599;53.706;10.384;2023-04-25T08:59:33;6.90;;;1.73;;
18933;SDS011;9599;53.706;10.384;2023-04-25T09:02:05;7.97;;;2.13;;
18933;SDS011;9599;53.706;10.384;2023-04-25T09:04:35;5.23;;;2.10;;
18933;SDS011;9599;53.706;10.384;2023-04-25T09:07:03;5.13;;;1.90;;
18933;SDS011;9599;53.706;10.384;2023-04-25T09:09:32;6.87;;;1.93;;
18933;SDS011;9599;53.706;10.384;2023-04-25T09:12:00;6.47;;;1.80;;
18933;SDS011;9599;53.706;10.384;2023-04-25T09:14:30;6.23;;;1.73;;
18933;SDS011;9599;53.706;10.384;2023-04-25T09:17:10;5.77;;;1.73;;
18933;SDS011;9599;53.706;10.384;2023-04-25T09:19:48;9.67;;;1.90;;
18933;SDS011;9599;53.706;10.384;2023-04-25T09:22:35;8.70;;;2.10;;
18933;SDS011;9599;53.706;10.384;2023-04-25T09:25:07;10.43;;;2.23;;
18933;SDS011;9599;53.706;10.384;2023-04-25T09:27:40;9.37;;;1.87;;
18933;SDS011;9599;53.706;10.384;2023-04-25T09:30:30;4.40;;;1.57;;
18933;SDS011;9599;53.706;10.384;2023-04-25T09:33:16;3.13;;;1.13;;
18933;SDS011;9599;53.706;10.384;2023-04-25T09:35:47;5.33;;;1.60;;
18933;SDS011;9599;53.706;10.384;2023-04-25T09:38:26;6.03;;;1.43;;
18933;SDS011;9599;53.706;10.384;2023-04-25T09:41:08;7.67;;;1.73;;
18933;SDS011;9599;53.706;10.384;2023-04-25T09:43:41;5.60;;;1.63;;
18933;SDS011;9599;53.706;10.384;2023-04-25T09:46:15;5.90;;;1.63;;
18933;SDS011;9599;53.706;10.384;2023-04-25T09:48:51;5.10;;;1.70;;
18933;SDS011;9599;53.706;10.384;2023-04-25T09:51:30;5.13;;;1.70;;
18933;SDS011;9599;53.706;10.384;2023-04-25T09:54:00;3.00;;;1.40;;
18933;SDS011;9599;53.706;10.384;2023-04-25T09:56:35;4.10;;;1.37;;
18933;SDS011;9599;53.706;10.384;2023-04-25T09:59:07;4.23;;;1.50;;
18933;SDS011;9599;53.706;10.384;2023-04-25T10:01:38;4.50;;;1.57;;
18933;SDS011;9599;53.706;10.384;2023-04-25T10:04:13;5.00;;;1.53;;
18933;SDS011;9599;53.706;10.384;2023-04-25T10:06:57;4.90;;;1.60;;
18933;SDS011;9599;53.706;10.384;2023-04-25T10:09:26;5.77;;;1.60;;
18933;SDS011;9599;53.706;10.384;2023-04-25T10:12:00;4.90;;;1.40;;
18933;SDS011;9599;53.706;10.384;2023-04-25T10:14:27;4.37;;;1.43;;
18933;SDS011;9599;53.706;10.384;2023-04-25T10:16:58;2.23;;;1.10;;
18933;SDS011;9599;53.706;10.384;2023-04-25T10:19:27;6.37;;;1.70;;
18933;SDS011;9599;53.706;10.384;2023-04-25T10:22:02;4.57;;;1.50;;
18933;SDS011;9599;53.706;10.384;2023-04-25T10:24:33;5.97;;;1.50;;
18933;SDS011;9599;53.706;10.384;2023-04-25T10:27:02;6.17;;;1.30;;
18933;SDS011;9599;53.706;10.384;2023-04-25T10:29:31;5.07;;;1.50;;
18933;SDS011;9599;53.706;10.384;2023-04-25T10:32:00;5.70;;;1.77;;
18933;SDS011;9599;53.706;10.384;2023-04-25T10:34:39;3.73;;;1.40;;
18933;SDS011;9599;53.706;10.384;2023-04-25T10:37:09;3.70;;;1.50;;
18933;SDS011;9599;53.706;10.384;2023-04-25T10:39:38;2.77;;;1.47;;
18933;SDS011;9599;53.706;10.384;2023-04-25T10:42:07;10.30;;;2.10;;
18933;SDS011;9599;53.706;10.384;2023-04-25T10:44:36;4.20;;;1.50;;
18933;SDS011;9599;53.706;10.384;2023-04-25T10:47:07;3.30;;;1.63;;
18933;SDS011;9599;53.706;10.384;2023-04-25T10:49:36;3.10;;;1.40;;
18933;SDS011;9599;53.706;10.384;2023-04-25T10:52:15;3.73;;;1.70;;
18933;SDS011;9599;53.706;10.384;2023-04-25T10:54:48;5.67;;;1.70;;
18933;SDS011;9599;53.706;10.384;2023-04-25T10:57:28;5.53;;;1.70;;
18933;SDS011;9599;53.706;10.384;2023-04-25T11:02:45;6.93;;;1.77;;
18933;SDS011;9599;53.706;10.384;2023-04-25T11:05:20;6.77;;;1.70;;
18933;SDS011;9599;53.706;10.384;2023-04-25T11:07:50;6.13;;;1.90;;
18933;SDS011;9599;53.706;10.384;2023-04-25T11:10:33;5.23;;;1.17;;
18933;SDS011;9599;53.706;10.384;2023-04-25T11:13:02;6.97;;;1.90;;
18933;SDS011;9599;53.706;10.384;2023-04-25T11:15:30;9.50;;;1.80;;
18933;SDS011;9599;53.706;10.384;2023-04-25T11:18:00;6.40;;;1.60;;
18933;SDS011;9599;53.706;10.384;2023-04-25T11:20:29;6.43;;;1.97;;
18933;SDS011;9599;53.706;10.384;2023-04-25T11:22:57;3.37;;;1.20;;
18933;SDS011;9599;53.706;10.384;2023-04-25T11:25:26;6.20;;;1.40;;
18933;SDS011;9599;53.706;10.384;2023-04-25T11:27:54;3.13;;;1.30;;
18933;SDS011;9599;53.706;10.384;2023-04-25T11:30:23;5.67;;;1.33;;
18933;SDS011;9599;53.706;10.384;2023-04-25T11:32:52;5.37;;;1.47;;
18933;SDS011;9599;53.706;10.384;2023-04-25T11:35:22;5.50;;;1.30;;
18933;SDS011;9599;53.706;10.384;2023-04-25T11:37:51;4.90;;;1.50;;
18933;SDS011;9599;53.706;10.384;2023-04-25T11:40:19;3.97;;;1.37;;
18933;SDS011;9599;53.706;10.384;2023-04-25T11:42:47;6.83;;;1.40;;
18933;SDS011;9599;53.706;10.384;2023-04-25T11:45:17;4.73;;;1.50;;
18933;SDS011;9599;53.706;10.384;2023-04-25T11:47:45;4.83;;;1.57;;
18933;SDS011;9599;53.706;10.384;2023-04-25T11:50:13;4.13;;;1.53;;
18933;SDS011;9599;53.706;10.384;2023-04-25T11:52:43;4.20;;;1.40;;
18933;SDS011;9599;53.706;10.384;2023-04-25T11:55:12;4.43;;;1.50;;
18933;SDS011;9599;53.706;10.384;2023-04-25T11:57:42;5.70;;;1.50;;
18933;SDS011;9599;53.706;10.384;2023-04-25T12:00:11;3.00;;;1.30;;
18933;SDS011;9599;53.706;10.384;2023-04-25T12:02:44;4.43;;;1.70;;
18933;SDS011;9599;53.706;10.384;2023-04-25T12:05:14;7.03;;;1.90;;
18933;SDS011;9599;53.706;10.384;2023-04-25T12:07:59;4.87;;;1.60;;
18933;SDS011;9599;53.706;10.384;2023-04-25T12:10:38;3.83;;;1.73;;
18933;SDS011;9599;53.706;10.384;2023-04-25T12:13:19;6.00;;;1.63;;
18933;SDS011;9599;53.706;10.384;2023-04-25T12:15:48;5.70;;;1.60;;
18933;SDS011;9599;53.706;10.384;2023-04-25T12:18:18;5.43;;;1.90;;
18933;SDS011;9599;53.706;10.384;2023-04-25T12:20:48;4.37;;;1.43;;
18933;SDS011;9599;53.706;10.384;2023-04-25T12:23:25;4.20;;;1.93;;
18933;SDS011;9599;53.706;10.384;2023-04-25T12:25:54;6.13;;;1.90;;
18933;SDS011;9599;53.706;10.384;2023-04-25T12:28:23;4.70;;;1.40;;
18933;SDS011;9599;53.706;10.384;2023-04-25T12:30:56;4.27;;;1.30;;
18933;SDS011;9599;53.706;10.384;2023-04-25T12:33:26;3.80;;;1.30;;
18933;SDS011;9599;53.706;10.384;2023-04-25T12:35:55;5.37;;;1.40;;
18933;SDS011;9599;53.706;10.384;2023-04-25T12:38:26;5.23;;;1.20;;
18933;SDS011;9599;53.706;10.384;2023-04-25T12:40:56;4.73;;;1.40;;
18933;SDS011;9599;53.706;10.384;2023-04-25T12:43:24;4.10;;;1.30;;
18933;SDS011;9599;53.706;10.384;2023-04-25T12:45:52;4.77;;;1.43;;
18933;SDS011;9599;53.706;10.384;2023-04-25T12:48:24;6.30;;;1.10;;
18933;SDS011;9599;53.706;10.384;2023-04-25T12:50:52;7.83;;;1.23;;
18933;SDS011;9599;53.706;10.384;2023-04-25T12:53:20;7.53;;;1.80;;
18933;SDS011;9599;53.706;10.384;2023-04-25T12:55:52;5.50;;;1.40;;
18933;SDS011;9599;53.706;10.384;2023-04-25T12:58:21;5.70;;;1.73;;
18933;SDS011;9599;53.706;10.384;2023-04-25T13:00:49;4.57;;;1.63;;
18933;SDS011;9599;53.706;10.384;2023-04-25T13:03:17;4.00;;;1.37;;
18933;SDS011;9599;53.706;10.384;2023-04-25T13:05:45;3.93;;;1.30;;
18933;SDS011;9599;53.706;10.384;2023-04-25T13:08:13;5.47;;;1.63;;
18933;SDS011;9599;53.706;10.384;2023-04-25T13:10:42;5.27;;;1.60;;
18933;SDS011;9599;53.706;10.384;2023-04-25T13:13:12;4.03;;;1.47;;
18933;SDS011;9599;53.706;10.384;2023-04-25T13:15:40;3.23;;;1.20;;
18933;SDS011;9599;53.706;10.384;2023-04-25T13:18:08;4.13;;;1.77;;
18933;SDS011;9599;53.706;10.384;2023-04-25T13:20:37;2.70;;;1.17;;
18933;SDS011;9599;53.706;10.384;2023-04-25T13:23:05;3.67;;;1.30;;
18933;SDS011;9599;53.706;10.384;2023-04-25T13:25:32;5.20;;;1.43;;
18933;SDS011;9599;53.706;10.384;2023-04-25T13:28:01;3.20;;;1.30;;
18933;SDS011;9599;53.706;10.384;2023-04-25T13:30:30;6.17;;;1.60;;
18933;SDS011;9599;53.706;10.384;2023-04-25T13:32:58;5.53;;;1.43;;
18933;SDS011;9599;53.706;10.384;2023-04-25T13:35:30;5.77;;;1.70;;
18933;SDS011;9599;53.706;10.384;2023-04-25T13:37:58;5.67;;;1.60;;
18933;SDS011;9599;53.706;10.384;2023-04-25T13:40:26;6.80;;;1.53;;
18933;SDS011;9599;53.706;10.384;2023-04-25T13:42:54;3.70;;;1.40;;
18933;SDS011;9599;53.706;10.384;2023-04-25T13:45:22;4.47;;;1.27;;
18933;SDS011;9599;53.706;10.384;2023-04-25T13:47:52;5.43;;;1.40;;
18933;SDS011;9599;53.706;10.384;2023-04-25T13:50:20;4.07;;;1.50;;
18933;SDS011;9599;53.706;10.384;2023-04-25T13:52:48;3.80;;;1.50;;
18933;SDS011;9599;53.706;10.384;2023-04-25T13:55:16;4.93;;;1.53;;
18933;SDS011;9599;53.706;10.384;2023-04-25T13:57:44;6.07;;;1.57;;
18933;SDS011;9599;53.706;10.384;2023-04-25T14:00:13;6.07;;;1.70;;
18933;SDS011;9599;53.706;10.384;2023-04-25T14:02:42;7.23;;;1.57;;
18933;SDS011;9599;53.706;10.384;2023-04-25T14:05:11;3.00;;;1.40;;
18933;SDS011;9599;53.706;10.384;2023-04-25T14:07:39;4.80;;;1.40;;
18933;SDS011;9599;53.706;10.384;2023-04-25T14:10:07;4.47;;;1.60;;
18933;SDS011;9599;53.706;10.384;2023-04-25T14:12:36;11.13;;;1.97;;
18933;SDS011;9599;53.706;10.384;2023-04-25T14:15:04;6.57;;;1.60;;
18933;SDS011;9599;53.706;10.384;2023-04-25T14:17:33;8.13;;;2.20;;
18933;SDS011;9599;53.706;10.384;2023-04-25T14:20:01;7.90;;;1.90;;
18933;SDS011;9599;53.706;10.384;2023-04-25T14:22:33;7.30;;;2.53;;
18933;SDS011;9599;53.706;10.384;2023-04-25T14:25:00;8.13;;;1.97;;
18933;SDS011;9599;53.706;10.384;2023-04-25T14:27:29;5.20;;;1.70;;
18933;SDS011;9599;53.706;10.384;2023-04-25T14:29:57;6.47;;;1.90;;
18933;SDS011;9599;53.706;10.384;2023-04-25T14:32:25;6.97;;;1.60;;
18933;SDS011;9599;53.706;10.384;2023-04-25T14:34:53;7.73;;;2.97;;
18933;SDS011;9599;53.706;10.384;2023-04-25T14:37:20;8.23;;;1.77;;
18933;SDS011;9599;53.706;10.384;2023-04-25T14:39:50;5.90;;;1.53;;
18933;SDS011;9599;53.706;10.384;2023-04-25T14:42:18;7.43;;;1.93;;
18933;SDS011;9599;53.706;10.384;2023-04-25T14:44:46;6.17;;;1.60;;
18933;SDS011;9599;53.706;10.384;2023-04-25T14:47:14;3.43;;;1.40;;
18933;SDS011;9599;53.706;10.384;2023-04-25T14:49:42;2.83;;;1.40;;
18933;SDS011;9599;53.706;10.384;2023-04-25T14:52:12;6.17;;;1.60;;
18933;SDS011;9599;53.706;10.384;2023-04-25T14:54:40;6.30;;;1.30;;
18933;SDS011;9599;53.706;10.384;2023-04-25T14:57:09;4.77;;;1.50;;
18933;SDS011;9599;53.706;10.384;2023-04-25T14:59:38;7.27;;;1.70;;
18933;SDS011;9599;53.706;10.384;2023-04-25T15:02:06;6.33;;;1.60;;
18933;SDS011;9599;53.706;10.384;2023-04-25T15:04:34;6.73;;;1.70;;
18933;SDS011;9599;53.706;10.384;2023-04-25T15:07:02;4.60;;;1.40;;
18933;SDS011;9599;53.706;10.384;2023-04-25T15:09:30;3.93;;;1.60;;